createdAt,value
2018-03-18T00:00:25.957Z,24.47
2018-03-18T00:02:53.455Z,21.37
2018-03-18T00:05:21.752Z,20.90
2018-03-18T00:07:49.241Z,19.27
2018-03-18T00:10:16.713Z,21.60
2018-03-18T00:12:44.217Z,26.33
2018-03-18T00:15:11.689Z,24.87
2018-03-18T00:17:39.209Z,62.30
2018-03-18T00:20:07.456Z,27.47
2018-03-18T00:22:34.943Z,22.77
2018-03-18T00:25:03.192Z,22.87
2018-03-18T00:27:30.712Z,21.73
2018-03-18T00:29:58.174Z,23.57
2018-03-18T00:32:25.656Z,23.50
2018-03-18T00:34:53.144Z,23.83
2018-03-18T00:37:21.397Z,22.80
2018-03-18T00:39:48.866Z,23.73
2018-03-18T00:42:17.174Z,24.87
2018-03-18T00:44:44.643Z,24.43
2018-03-18T00:47:12.115Z,22.23
2018-03-18T00:49:39.601Z,22.40
2018-03-18T00:52:07.089Z,24.10
2018-03-18T00:54:35.338Z,27.37
2018-03-18T00:57:02.815Z,23.40
2018-03-18T00:59:31.069Z,23.83
2018-03-18T01:01:58.537Z,24.37
2018-03-18T01:04:26.038Z,19.73
2018-03-18T01:06:53.500Z,24.63
2018-03-18T01:09:20.989Z,23.17
2018-03-18T01:11:48.453Z,22.47
2018-03-18T01:14:15.971Z,23.50
2018-03-18T01:16:43.445Z,25.37
2018-03-18T01:19:10.942Z,23.23
2018-03-18T01:21:38.429Z,20.20
2018-03-18T01:24:05.923Z,22.27
2018-03-18T01:26:33.384Z,21.47
2018-03-18T01:29:00.882Z,21.20
2018-03-18T01:31:29.149Z,22.17
2018-03-18T01:33:56.622Z,23.27
2018-03-18T01:36:24.884Z,22.80
2018-03-18T01:38:52.368Z,31.05
2018-03-18T01:41:19.857Z,23.67
2018-03-18T01:43:47.378Z,23.60
2018-03-18T01:46:15.635Z,23.03
2018-03-18T01:48:43.100Z,25.77
2018-03-18T01:51:11.384Z,23.30
2018-03-18T01:53:39.621Z,24.80
2018-03-18T01:56:07.124Z,24.80
2018-03-18T01:58:34.594Z,19.67
2018-03-18T02:01:02.117Z,24.73
2018-03-18T02:03:30.072Z,23.37
2018-03-18T02:05:57.713Z,23.80
2018-03-18T02:08:25.197Z,22.57
2018-03-18T02:10:52.693Z,23.33
2018-03-18T02:13:20.172Z,23.13
2018-03-18T02:15:47.653Z,24.60
2018-03-18T02:18:15.152Z,22.67
2018-03-18T02:20:43.395Z,22.97
2018-03-18T02:23:10.929Z,27.07
2018-03-18T02:25:42.721Z,25.37
2018-03-18T02:28:10.201Z,23.37
2018-03-18T02:30:38.439Z,27.23
2018-03-18T02:33:05.913Z,23.80
2018-03-18T02:35:33.388Z,26.40
2018-03-18T02:38:00.897Z,22.80
2018-03-18T02:40:28.437Z,21.70
2018-03-18T02:42:55.998Z,21.83
2018-03-18T02:45:23.474Z,24.97
2018-03-18T02:47:50.966Z,24.50
2018-03-18T02:50:18.533Z,26.60
2018-03-18T02:52:46.791Z,28.57
2018-03-18T02:55:14.272Z,26.27
2018-03-18T02:57:42.569Z,24.20
2018-03-18T03:00:10.045Z,23.10
2018-03-18T03:02:37.538Z,26.37
2018-03-18T03:05:05.030Z,24.87
2018-03-18T03:07:33.264Z,22.67
2018-03-18T03:10:00.752Z,22.53
2018-03-18T03:12:28.992Z,24.60
2018-03-18T03:14:56.485Z,21.43
2018-03-18T03:17:25.461Z,26.43
2018-03-18T03:19:52.937Z,19.77
2018-03-18T03:22:21.190Z,22.77
2018-03-18T03:24:48.689Z,22.13
2018-03-18T03:27:16.168Z,21.33
2018-03-18T03:29:43.665Z,20.70
2018-03-18T03:32:11.142Z,23.30
2018-03-18T03:34:39.408Z,23.57
2018-03-18T03:37:07.646Z,20.53
2018-03-18T03:39:35.134Z,21.47
2018-03-18T03:42:02.599Z,24.40
2018-03-18T03:44:30.902Z,21.23
2018-03-18T03:46:58.383Z,22.23
2018-03-18T03:49:25.877Z,23.27
2018-03-18T03:51:53.365Z,24.47
2018-03-18T03:54:20.830Z,24.27
2018-03-18T03:56:48.317Z,21.40
2018-03-18T03:59:15.782Z,24.97
2018-03-18T04:01:43.274Z,21.63
2018-03-18T04:04:11.509Z,19.77
2018-03-18T04:06:39.000Z,20.37
2018-03-18T04:09:06.473Z,20.13
2018-03-18T04:11:34.732Z,21.93
2018-03-18T04:14:02.205Z,22.20
2018-03-18T04:16:30.454Z,24.30
2018-03-18T04:18:57.925Z,22.27
2018-03-18T04:21:25.425Z,21.83
2018-03-18T04:23:52.896Z,22.00
2018-03-18T04:26:20.442Z,22.00
2018-03-18T04:28:47.921Z,21.50
2018-03-18T04:31:15.457Z,18.67
2018-03-18T04:33:42.941Z,24.43
2018-03-18T04:36:10.413Z,22.70
2018-03-18T04:38:37.898Z,20.47
2018-03-18T04:41:06.152Z,22.37
2018-03-18T04:43:33.633Z,22.27
2018-03-18T04:46:01.864Z,22.40
2018-03-18T04:48:29.353Z,25.57
2018-03-18T04:50:56.830Z,20.70
2018-03-18T04:53:25.078Z,23.47
2018-03-18T04:55:52.546Z,22.77
2018-03-18T04:58:20.796Z,22.23
2018-03-18T05:00:48.270Z,21.23
2018-03-18T05:03:15.752Z,16.43
2018-03-18T05:05:43.993Z,20.67
2018-03-18T05:08:11.480Z,20.63
2018-03-18T05:10:39.720Z,18.93
2018-03-18T05:13:07.209Z,23.27
2018-03-18T05:15:35.456Z,18.03
2018-03-18T05:18:02.949Z,19.97
2018-03-18T05:20:31.197Z,25.43
2018-03-18T05:22:58.685Z,20.97
2018-03-18T05:25:26.919Z,17.63
2018-03-18T05:27:54.435Z,18.13
2018-03-18T05:30:21.913Z,24.07
2018-03-18T05:32:49.376Z,18.07
2018-03-18T05:35:17.011Z,20.53
2018-03-18T05:37:44.474Z,19.83
2018-03-18T05:40:11.957Z,21.43
2018-03-18T05:42:39.428Z,21.00
2018-03-18T05:45:07.678Z,19.70
2018-03-18T05:47:35.146Z,15.93
2018-03-18T05:50:02.632Z,17.70
2018-03-18T05:52:30.120Z,19.53
2018-03-18T05:54:57.612Z,21.57
2018-03-18T05:57:25.145Z,20.60
2018-03-18T05:59:53.385Z,17.93
2018-03-18T06:02:21.612Z,18.33
2018-03-18T06:04:49.094Z,20.20
2018-03-18T06:07:16.576Z,18.13
2018-03-18T06:09:44.833Z,19.80
2018-03-18T06:12:12.303Z,21.13
2018-03-18T06:14:39.793Z,20.47
2018-03-18T06:17:07.275Z,19.50
2018-03-18T06:19:34.741Z,21.53
2018-03-18T06:22:02.244Z,16.90
2018-03-18T06:24:30.541Z,23.00
2018-03-18T06:26:58.038Z,20.87
2018-03-18T06:29:25.556Z,20.60
2018-03-18T06:31:53.801Z,18.90
2018-03-18T06:34:21.281Z,26.17
2018-03-18T06:36:49.554Z,22.97
2018-03-18T06:39:17.812Z,22.87
2018-03-18T06:41:46.060Z,19.20
2018-03-18T06:44:13.530Z,17.13
2018-03-18T06:46:41.026Z,19.87
2018-03-18T06:49:08.489Z,20.17
2018-03-18T06:51:35.993Z,18.07
2018-03-18T06:54:03.453Z,19.40
2018-03-18T06:56:32.462Z,17.13
2018-03-18T06:58:59.934Z,21.70
2018-03-18T07:01:28.173Z,18.70
2018-03-18T07:03:56.435Z,17.57
2018-03-18T07:06:23.906Z,17.23
2018-03-18T07:08:52.165Z,15.73
2018-03-18T07:11:19.649Z,19.67
2018-03-18T07:13:47.917Z,23.87
2018-03-18T07:16:16.165Z,17.00
2018-03-18T07:18:43.654Z,17.37
2018-03-18T07:21:11.133Z,16.97
2018-03-18T07:23:38.632Z,18.60
2018-03-18T07:26:06.101Z,14.70
2018-03-18T07:28:33.584Z,17.27
2018-03-18T07:31:01.060Z,16.17
2018-03-18T07:33:28.570Z,19.87
2018-03-18T07:35:56.043Z,15.37
2018-03-18T07:38:23.533Z,17.93
2018-03-18T07:40:51.018Z,15.93
2018-03-18T07:43:19.271Z,17.90
2018-03-18T07:45:46.745Z,16.73
2018-03-18T07:48:15.013Z,64.43
2018-03-18T07:50:43.253Z,20.23
2018-03-18T07:53:11.043Z,14.73
2018-03-18T07:55:39.307Z,17.93
2018-03-18T07:58:06.806Z,12.60
2018-03-18T08:00:34.381Z,13.50
2018-03-18T08:03:01.836Z,17.30
2018-03-18T08:05:29.324Z,16.10
2018-03-18T08:07:56.793Z,22.30
2018-03-18T08:10:24.276Z,18.13
2018-03-18T08:12:52.524Z,20.03
2018-03-18T08:15:20.008Z,20.67
2018-03-18T08:17:48.245Z,19.00
2018-03-18T08:20:15.744Z,17.27
2018-03-18T08:22:43.982Z,20.00
2018-03-18T08:25:11.477Z,14.20
2018-03-18T08:27:39.719Z,16.43
2018-03-18T08:30:07.225Z,22.03
2018-03-18T08:32:35.460Z,14.77
2018-03-18T08:35:02.947Z,15.97
2018-03-18T08:37:31.183Z,17.70
2018-03-18T08:39:58.681Z,18.27
2018-03-18T08:42:29.759Z,15.10
2018-03-18T08:44:57.237Z,16.37
2018-03-18T08:47:24.710Z,15.70
2018-03-18T08:49:52.398Z,13.33
2018-03-18T08:52:20.681Z,19.10
2018-03-18T08:54:48.122Z,15.53
2018-03-18T08:57:15.604Z,16.70
2018-03-18T08:59:43.084Z,18.33
2018-03-18T09:02:10.596Z,19.50
2018-03-18T09:04:38.061Z,17.13
2018-03-18T09:07:06.324Z,15.00
2018-03-18T09:09:33.806Z,19.60
2018-03-18T09:12:01.305Z,18.03
2018-03-18T09:14:28.772Z,16.60
2018-03-18T09:16:56.298Z,14.70
2018-03-18T09:19:24.546Z,16.33
2018-03-18T09:21:52.031Z,15.07
2018-03-18T09:24:19.491Z,16.03
2018-03-18T09:26:46.974Z,18.87
2018-03-18T09:29:14.444Z,23.70
2018-03-18T09:31:41.934Z,18.63
2018-03-18T09:34:10.177Z,15.10
2018-03-18T09:36:37.663Z,13.97
2018-03-18T09:39:05.929Z,15.17
2018-03-18T09:41:33.391Z,16.03
2018-03-18T09:44:01.691Z,18.00
2018-03-18T09:46:29.176Z,15.63
2018-03-18T09:48:56.694Z,17.07
2018-03-18T09:51:24.917Z,16.33
2018-03-18T09:53:52.401Z,12.77
2018-03-18T09:56:19.878Z,14.10
2018-03-18T09:58:48.140Z,18.23
2018-03-18T10:01:16.393Z,15.33
2018-03-18T10:03:43.907Z,18.33
2018-03-18T10:06:12.141Z,17.17
2018-03-18T10:08:39.649Z,17.10
2018-03-18T10:11:07.137Z,18.93
2018-03-18T10:13:34.616Z,16.53
2018-03-18T10:16:02.165Z,15.70
2018-03-18T10:18:29.645Z,18.30
2018-03-18T10:20:57.109Z,14.93
2018-03-18T10:23:25.347Z,19.00
2018-03-18T10:25:52.834Z,33.53
2018-03-18T10:28:20.296Z,15.00
2018-03-18T10:30:48.554Z,13.50
2018-03-18T10:33:16.020Z,16.50
2018-03-18T10:35:43.508Z,17.23
2018-03-18T10:38:10.981Z,18.70
2018-03-18T10:40:38.456Z,17.40
2018-03-18T10:43:05.925Z,15.90
2018-03-18T10:45:33.410Z,15.50
2018-03-18T10:48:00.881Z,12.60
2018-03-18T10:50:29.125Z,16.87
2018-03-18T10:52:56.615Z,13.97
2018-03-18T10:55:24.867Z,16.40
2018-03-18T10:57:53.105Z,15.50
2018-03-18T11:00:20.601Z,17.00
2018-03-18T11:02:50.896Z,16.80
2018-03-18T11:05:18.361Z,15.80
2018-03-18T11:07:45.846Z,16.50
2018-03-18T11:10:13.308Z,15.07
2018-03-18T11:12:41.582Z,17.30
2018-03-18T11:15:09.071Z,17.70
2018-03-18T11:17:36.554Z,15.87
2018-03-18T11:20:04.028Z,15.67
2018-03-18T11:22:31.520Z,16.87
2018-03-18T11:24:58.985Z,22.33
2018-03-18T11:27:26.477Z,18.33
2018-03-18T11:29:53.956Z,20.27
2018-03-18T11:32:21.474Z,15.30
2018-03-18T11:34:49.714Z,17.60
2018-03-18T11:37:17.201Z,16.80
2018-03-18T11:39:45.424Z,17.57
2018-03-18T11:42:12.921Z,21.13
2018-03-18T11:44:40.396Z,23.60
2018-03-18T11:47:08.642Z,14.77
2018-03-18T11:49:36.158Z,21.70
2018-03-18T11:52:04.374Z,19.60
2018-03-18T11:54:32.331Z,22.67
2018-03-18T11:56:59.818Z,15.33
2018-03-18T11:59:27.303Z,14.03
2018-03-18T12:01:54.788Z,17.50
2018-03-18T12:04:22.288Z,14.67
2018-03-18T12:06:50.533Z,17.37
2018-03-18T12:09:18.029Z,17.73
2018-03-18T12:11:46.268Z,19.63
2018-03-18T12:14:13.750Z,14.87
2018-03-18T12:16:41.226Z,17.40
2018-03-18T12:19:09.489Z,18.07
2018-03-18T12:21:36.953Z,16.37
2018-03-18T12:24:05.201Z,16.53
2018-03-18T12:26:32.667Z,18.13
2018-03-18T12:29:00.157Z,16.37
2018-03-18T12:31:28.443Z,15.43
2018-03-18T12:33:55.952Z,15.37
2018-03-18T12:36:23.424Z,14.63
2018-03-18T12:38:50.936Z,14.90
2018-03-18T12:41:18.426Z,15.13
2018-03-18T12:43:45.898Z,14.07
2018-03-18T12:46:13.370Z,15.30
2018-03-18T12:48:41.618Z,15.63
2018-03-18T12:51:09.096Z,16.47
2018-03-18T12:53:37.345Z,15.37
2018-03-18T12:56:04.865Z,18.73
2018-03-18T12:58:32.340Z,17.00
2018-03-18T13:00:59.831Z,17.77
2018-03-18T13:03:27.298Z,14.37
2018-03-18T13:05:55.550Z,16.33
2018-03-18T13:08:23.041Z,16.77
2018-03-18T13:10:51.289Z,14.23
2018-03-18T13:13:18.764Z,16.40
2018-03-18T13:15:46.255Z,14.37
2018-03-18T13:18:13.759Z,14.70
2018-03-18T13:20:41.256Z,12.57
2018-03-18T13:23:08.791Z,16.87
2018-03-18T13:25:36.300Z,26.13
2018-03-18T13:28:03.769Z,18.77
2018-03-18T13:30:31.262Z,18.15
2018-03-18T13:32:58.720Z,17.57
2018-03-18T13:35:26.991Z,17.53
2018-03-18T13:37:54.456Z,14.20
2018-03-18T13:40:22.804Z,15.97
2018-03-18T13:42:50.279Z,17.63
2018-03-18T13:45:17.747Z,12.80
2018-03-18T13:47:45.230Z,17.93
2018-03-18T13:50:12.780Z,12.80
2018-03-18T13:52:41.040Z,15.73
2018-03-18T13:55:08.510Z,13.63
2018-03-18T13:57:36.774Z,18.50
2018-03-18T14:00:05.117Z,17.40
2018-03-18T14:02:32.611Z,17.03
2018-03-18T14:05:00.895Z,14.93
2018-03-18T14:07:29.158Z,12.80
2018-03-18T14:09:56.625Z,13.70
2018-03-18T14:12:24.884Z,11.93
2018-03-18T14:14:52.361Z,13.43
2018-03-18T14:17:20.645Z,13.27
2018-03-18T14:19:48.144Z,13.67
2018-03-18T14:22:15.610Z,12.07
2018-03-18T14:24:43.115Z,10.90
2018-03-18T14:27:11.361Z,11.47
2018-03-18T14:29:38.867Z,12.20
2018-03-18T14:32:06.350Z,13.17
2018-03-18T14:34:33.860Z,13.57
2018-03-18T14:37:02.120Z,14.10
2018-03-18T14:39:29.618Z,12.50
2018-03-18T14:41:57.089Z,11.43
2018-03-18T14:44:24.576Z,13.13
2018-03-18T14:46:52.037Z,14.67
2018-03-18T14:49:19.529Z,14.73
2018-03-18T14:51:47.048Z,13.70
2018-03-18T14:54:14.540Z,15.10
2018-03-18T14:56:42.780Z,16.03
2018-03-18T14:59:10.268Z,15.07
2018-03-18T15:01:38.501Z,13.93
2018-03-18T15:04:05.979Z,12.93
2018-03-18T15:06:33.462Z,11.93
2018-03-18T15:09:02.708Z,10.97
2018-03-18T15:11:30.196Z,11.30
2018-03-18T15:13:57.699Z,12.27
2018-03-18T15:16:25.204Z,13.47
2018-03-18T15:18:52.676Z,12.90
2018-03-18T15:21:20.955Z,9.83
2018-03-18T15:23:49.201Z,12.50
2018-03-18T15:26:16.680Z,13.70
2018-03-18T15:28:44.131Z,9.67
2018-03-18T15:31:11.628Z,10.83
2018-03-18T15:33:39.094Z,12.43
2018-03-18T15:36:06.585Z,14.13
2018-03-18T15:38:34.079Z,14.17
2018-03-18T15:41:02.344Z,11.63
2018-03-18T15:43:29.824Z,13.10
2018-03-18T15:45:58.076Z,11.67
2018-03-18T15:48:25.552Z,14.30
2018-03-18T15:50:53.805Z,18.47
2018-03-18T15:53:21.267Z,11.53
2018-03-18T15:55:48.731Z,12.47
2018-03-18T15:58:16.984Z,12.33
2018-03-18T16:00:44.470Z,9.97
2018-03-18T16:03:11.968Z,14.93
2018-03-18T16:05:39.462Z,11.83
2018-03-18T16:08:06.953Z,12.07
2018-03-18T16:10:35.209Z,11.60
2018-03-18T16:13:03.473Z,9.17
2018-03-18T16:15:31.717Z,10.67
2018-03-18T16:17:59.254Z,13.67
2018-03-18T16:20:26.730Z,11.37
2018-03-18T16:22:54.241Z,20.90
2018-03-18T16:25:21.791Z,16.57
2018-03-18T16:27:49.343Z,14.17
2018-03-18T16:30:28.673Z,11.77
2018-03-18T16:32:56.142Z,11.77
2018-03-18T16:35:23.644Z,13.00
2018-03-18T16:37:51.146Z,10.97
2018-03-18T16:40:18.770Z,9.37
2018-03-18T16:42:46.262Z,12.37
2018-03-18T16:45:13.742Z,18.13
2018-03-18T16:47:41.294Z,21.90
2018-03-18T16:50:08.809Z,13.07
2018-03-18T16:52:36.343Z,10.90
2018-03-18T16:55:03.828Z,9.27
2018-03-18T16:57:31.388Z,13.60
2018-03-18T16:59:58.892Z,11.43
2018-03-18T17:02:26.374Z,13.60
2018-03-18T17:04:53.907Z,11.17
2018-03-18T17:07:22.195Z,14.33
2018-03-18T17:09:50.466Z,14.00
2018-03-18T17:12:17.942Z,11.33
2018-03-18T17:14:45.433Z,9.53
2018-03-18T17:17:12.913Z,9.77
2018-03-18T17:19:40.399Z,11.27
2018-03-18T17:22:07.912Z,11.47
2018-03-18T17:24:35.422Z,11.97
2018-03-18T17:27:02.929Z,16.30
2018-03-18T17:29:30.417Z,16.97
2018-03-18T17:31:57.922Z,12.00
2018-03-18T17:34:25.377Z,10.30
2018-03-18T17:36:52.878Z,9.67
2018-03-18T17:39:20.442Z,11.30
2018-03-18T17:41:48.004Z,10.17
2018-03-18T17:44:28.091Z,11.53
2018-03-18T17:47:07.630Z,13.37
2018-03-18T17:49:46.965Z,14.10
2018-03-18T17:52:26.288Z,12.37
2018-03-18T17:55:05.491Z,10.70
2018-03-18T17:57:33.785Z,9.83
2018-03-18T18:00:02.032Z,12.23
2018-03-18T18:02:29.556Z,8.43
2018-03-18T18:04:57.055Z,10.20
2018-03-18T18:07:24.567Z,9.83
2018-03-18T18:09:52.040Z,11.77
2018-03-18T18:12:19.539Z,17.80
2018-03-18T18:14:47.070Z,11.40
2018-03-18T18:17:14.559Z,11.27
2018-03-18T18:19:42.067Z,9.57
2018-03-18T18:22:09.538Z,13.07
2018-03-18T18:24:37.074Z,11.37
2018-03-18T18:27:04.578Z,16.27
2018-03-18T18:29:32.868Z,15.33
2018-03-18T18:32:00.333Z,10.07
2018-03-18T18:34:28.602Z,8.37
2018-03-18T18:36:56.860Z,7.77
2018-03-18T18:39:24.359Z,16.13
2018-03-18T18:41:51.920Z,12.33
2018-03-18T18:44:19.396Z,7.67
2018-03-18T18:46:46.892Z,9.03
2018-03-18T18:49:14.392Z,9.70
2018-03-18T18:51:41.869Z,13.30
2018-03-18T18:54:09.424Z,6.97
2018-03-18T18:56:36.968Z,18.07
2018-03-18T18:59:04.430Z,15.00
2018-03-18T19:01:31.940Z,8.40
2018-03-18T19:03:59.432Z,10.93
2018-03-18T19:06:28.504Z,10.23
2018-03-18T19:08:55.993Z,9.60
2018-03-18T19:11:23.452Z,9.50
2018-03-18T19:13:51.006Z,6.97
2018-03-18T19:16:18.500Z,14.23
2018-03-18T19:18:46.013Z,9.40
2018-03-18T19:21:13.498Z,8.23
2018-03-18T19:23:40.996Z,10.83
2018-03-18T19:26:08.801Z,14.37
2018-03-18T19:28:36.297Z,9.07
2018-03-18T19:31:03.789Z,10.87
2018-03-18T19:33:32.066Z,11.40
2018-03-18T19:36:00.347Z,12.50
2018-03-18T19:38:29.877Z,9.33
2018-03-18T19:40:57.382Z,9.40
2018-03-18T19:43:24.866Z,8.50
2018-03-18T19:45:53.136Z,8.97
2018-03-18T19:48:20.657Z,11.73
2018-03-18T19:50:48.119Z,8.07
2018-03-18T19:53:15.596Z,9.33
2018-03-18T19:55:43.105Z,8.87
2018-03-18T19:58:10.580Z,8.90
2018-03-18T20:00:38.082Z,8.67
2018-03-18T20:03:05.560Z,9.47
2018-03-18T20:05:33.058Z,8.93
2018-03-18T20:08:00.587Z,7.60
2018-03-18T20:10:28.838Z,10.63
2018-03-18T20:12:56.338Z,12.02
2018-03-18T20:15:23.889Z,13.00
2018-03-18T20:17:51.367Z,8.57
2018-03-18T20:20:18.908Z,10.10
2018-03-18T20:22:46.393Z,7.47
2018-03-18T20:25:13.941Z,11.13
2018-03-18T20:27:41.478Z,10.27
2018-03-18T20:30:09.007Z,11.00
2018-03-18T20:32:37.260Z,11.83
2018-03-18T20:35:04.759Z,9.37
2018-03-18T20:37:32.221Z,10.63
2018-03-18T20:39:59.697Z,15.03
2018-03-18T20:42:27.204Z,21.73
2018-03-18T20:44:55.480Z,20.23
2018-03-18T20:47:24.601Z,10.87
2018-03-18T20:49:52.120Z,10.13
2018-03-18T20:52:28.382Z,10.37
2018-03-18T20:54:55.873Z,9.93
2018-03-18T20:57:23.386Z,9.90
2018-03-18T20:59:50.846Z,8.97
2018-03-18T21:02:18.365Z,8.90
2018-03-18T21:04:45.833Z,9.70
2018-03-18T21:07:13.340Z,13.03
2018-03-18T21:09:40.800Z,12.83
2018-03-18T21:12:08.322Z,10.20
2018-03-18T21:14:35.796Z,8.03
2018-03-18T21:17:03.292Z,9.23
2018-03-18T21:19:30.790Z,8.17
2018-03-18T21:21:58.293Z,8.77
2018-03-18T21:24:26.565Z,10.83
2018-03-18T21:26:54.829Z,11.67
2018-03-18T21:29:22.301Z,14.40
2018-03-18T21:31:50.559Z,9.83
2018-03-18T21:34:18.051Z,10.03
2018-03-18T21:36:46.304Z,8.93
2018-03-18T21:39:13.771Z,9.47
2018-03-18T21:41:42.254Z,8.33
2018-03-18T21:44:10.505Z,6.53
2018-03-18T21:46:37.969Z,8.97
2018-03-18T21:49:05.484Z,11.07
2018-03-18T21:51:33.024Z,13.03
2018-03-18T21:54:00.529Z,8.63
2018-03-18T21:56:28.014Z,11.60
2018-03-18T21:58:55.525Z,7.60
2018-03-18T22:01:23.004Z,7.50
2018-03-18T22:03:50.497Z,10.70
2018-03-18T22:06:18.744Z,11.10
2018-03-18T22:08:46.246Z,41.93
2018-03-18T22:11:13.717Z,9.13
2018-03-18T22:13:41.208Z,12.73
2018-03-18T22:16:08.675Z,13.23
2018-03-18T22:18:36.950Z,13.50
2018-03-18T22:21:04.425Z,13.87
2018-03-18T22:23:32.889Z,12.90
2018-03-18T22:26:00.400Z,9.87
2018-03-18T22:28:27.895Z,9.50
2018-03-18T22:30:55.366Z,9.27
2018-03-18T22:33:22.852Z,8.43
2018-03-18T22:35:51.085Z,7.97
2018-03-18T22:38:18.614Z,10.53
2018-03-18T22:40:46.095Z,8.60
2018-03-18T22:45:47.448Z,9.90
2018-03-18T22:48:14.926Z,8.33
2018-03-18T22:50:42.400Z,11.50
2018-03-18T22:53:09.874Z,9.90
2018-03-18T22:55:38.125Z,9.90
2018-03-18T22:58:05.606Z,12.13
2018-03-18T23:00:33.849Z,8.43
2018-03-18T23:03:01.315Z,11.03
2018-03-18T23:05:28.802Z,11.27
2018-03-18T23:07:56.291Z,10.17
2018-03-18T23:10:23.789Z,10.77
2018-03-18T23:12:51.266Z,10.80
2018-03-18T23:15:18.753Z,9.53
2018-03-18T23:18:01.099Z,11.70
2018-03-18T23:20:29.361Z,12.17
2018-03-18T23:22:57.601Z,12.60
2018-03-18T23:25:25.094Z,15.37
2018-03-18T23:27:53.341Z,10.83
2018-03-18T23:30:20.843Z,10.17
2018-03-18T23:32:49.129Z,11.47
2018-03-18T23:35:16.593Z,10.63
2018-03-18T23:37:44.086Z,12.80
2018-03-18T23:40:11.564Z,16.03
2018-03-18T23:42:39.170Z,11.57
2018-03-18T23:45:06.566Z,12.50
2018-03-18T23:47:34.058Z,13.00
2018-03-18T23:50:01.536Z,12.47
2018-03-18T23:52:29.026Z,9.77
2018-03-18T23:54:56.496Z,11.70
2018-03-18T23:57:23.964Z,12.47
2018-03-18T23:59:52.941Z,16.13
